createdAt,value
2023-03-02T00:01:40.453Z,99272.44
2023-03-02T00:04:13.028Z,99281.56
2023-03-02T00:06:40.320Z,99280.47
2023-03-02T00:09:07.514Z,99266.28
2023-03-02T00:11:37.747Z,99284.59
2023-03-02T00:14:05.393Z,99282.03
2023-03-02T00:16:33.121Z,99252.75
2023-03-02T00:19:00.430Z,99255.38
2023-03-02T00:21:27.508Z,99275.38
2023-03-02T00:23:54.560Z,99269.00
2023-03-02T00:26:21.624Z,99252.63
2023-03-02T00:28:48.741Z,99290.00
2023-03-02T00:31:16.072Z,99259.44
2023-03-02T00:33:43.381Z,99287.47
2023-03-02T00:36:20.719Z,99294.75
2023-03-02T00:38:48.246Z,99299.66
2023-03-02T00:41:16.588Z,99296.16
2023-03-02T00:43:43.876Z,99302.84
2023-03-02T00:46:16.019Z,99286.81
2023-03-02T00:48:43.767Z,99312.75
2023-03-02T00:51:11.055Z,99318.81
2023-03-02T00:53:38.229Z,99303.19
2023-03-02T00:56:06.138Z,99297.31
2023-03-02T00:58:36.840Z,99257.66
2023-03-02T01:01:09.730Z,99295.66
2023-03-02T01:03:39.507Z,99288.34
2023-03-02T01:06:14.000Z,99281.88
2023-03-02T01:08:41.032Z,99316.09
2023-03-02T01:11:19.914Z,99312.97
2023-03-02T01:13:47.643Z,99313.22
2023-03-02T01:16:15.319Z,99307.63
2023-03-02T01:18:42.839Z,99318.94
2023-03-02T01:21:12.925Z,99325.41
2023-03-02T01:23:40.009Z,99335.41
2023-03-02T01:26:07.972Z,99301.13
2023-03-02T01:28:34.972Z,99317.16
2023-03-02T01:31:03.377Z,99305.59
2023-03-02T01:33:31.394Z,99272.81
2023-03-02T01:35:58.459Z,99328.41
2023-03-02T01:38:25.754Z,99324.97
2023-03-02T01:40:52.922Z,99319.69
2023-03-02T01:43:20.241Z,99299.66
2023-03-02T01:46:08.435Z,99323.16
2023-03-02T01:49:13.790Z,99337.50
2023-03-02T01:52:00.486Z,99345.50
2023-03-02T01:54:27.954Z,99348.03
2023-03-02T01:57:02.525Z,99354.88
2023-03-02T01:59:31.941Z,99351.66
2023-03-02T02:02:01.847Z,99364.34
2023-03-02T02:04:31.204Z,99360.22
2023-03-02T02:07:03.587Z,99353.31
2023-03-02T02:09:34.873Z,99365.41
2023-03-02T02:12:02.619Z,99343.16
2023-03-02T02:14:29.854Z,99361.53
2023-03-02T02:16:56.954Z,99341.38
2023-03-02T02:19:26.696Z,99352.94
2023-03-02T02:21:53.778Z,99339.09
2023-03-02T02:24:46.815Z,99342.59
2023-03-02T02:27:15.049Z,99344.34
2023-03-02T02:29:49.751Z,99345.03
2023-03-02T02:32:22.130Z,99340.31
2023-03-02T02:35:02.769Z,99342.25
2023-03-02T02:37:42.082Z,99323.47
2023-03-02T02:40:17.685Z,99352.00
2023-03-02T02:42:50.467Z,99360.50
2023-03-02T02:45:26.409Z,99350.41
2023-03-02T02:47:55.696Z,99383.03
2023-03-02T02:50:30.987Z,99361.69
2023-03-02T02:53:04.048Z,99384.78
2023-03-02T02:55:33.570Z,99384.78
2023-03-02T02:58:10.112Z,99356.97
2023-03-02T03:00:38.573Z,99384.00
2023-03-02T03:03:29.435Z,99385.75
2023-03-02T03:06:00.896Z,99384.00
2023-03-02T03:08:46.293Z,99392.78
2023-03-02T03:11:23.778Z,99405.13
2023-03-02T03:13:57.511Z,99378.63
2023-03-02T03:16:28.228Z,99403.03
2023-03-02T03:18:58.781Z,99405.56
2023-03-02T03:21:25.842Z,99401.63
2023-03-02T03:23:53.863Z,99393.72
2023-03-02T03:26:20.963Z,99407.38
2023-03-02T03:28:48.748Z,99404.94
2023-03-02T03:31:16.471Z,99410.13
2023-03-02T03:33:43.805Z,99394.09
2023-03-02T03:36:11.030Z,99388.72
2023-03-02T03:38:38.779Z,99388.72
2023-03-02T03:41:05.834Z,99382.75
2023-03-02T03:43:32.900Z,99379.94
2023-03-02T03:45:59.948Z,99374.97
2023-03-02T03:48:27.022Z,99372.84
2023-03-02T03:50:54.105Z,99365.22
2023-03-02T03:53:21.364Z,99357.84
2023-03-02T03:55:48.530Z,99372.22
2023-03-02T03:58:15.587Z,99372.16
2023-03-02T04:00:42.736Z,99359.94
2023-03-02T04:03:11.532Z,99372.44
2023-03-02T04:05:38.550Z,99372.06
2023-03-02T04:08:06.172Z,99383.78
2023-03-02T04:10:34.190Z,99390.66
2023-03-02T04:13:02.396Z,99389.06
2023-03-02T04:15:29.982Z,99390.97
2023-03-02T04:17:59.561Z,99384.84
2023-03-02T04:20:28.346Z,99373.16
2023-03-02T04:22:57.627Z,99396.75
2023-03-02T04:25:27.925Z,99400.25
2023-03-02T04:27:59.522Z,99392.28
2023-03-02T04:30:29.759Z,99394.81
2023-03-02T04:32:57.756Z,99403.44
2023-03-02T04:35:27.969Z,99398.72
2023-03-02T04:37:55.579Z,99408.16
2023-03-02T04:40:22.749Z,99388.97
2023-03-02T04:42:49.724Z,99403.00
2023-03-02T04:45:16.948Z,99418.88
2023-03-02T04:47:44.088Z,99432.66
2023-03-02T04:50:13.758Z,99433.44
2023-03-02T04:52:41.980Z,99442.91
2023-03-02T04:55:09.571Z,99435.78
2023-03-02T04:57:36.632Z,99435.13
2023-03-02T05:00:05.080Z,99446.94
2023-03-02T05:02:32.596Z,99460.63
2023-03-02T05:04:59.676Z,99463.34
2023-03-02T05:07:26.901Z,99460.13
2023-03-02T05:09:53.898Z,99458.25
2023-03-02T05:12:21.858Z,99471.41
2023-03-02T05:14:48.968Z,99480.72
2023-03-02T05:17:16.442Z,99480.91
2023-03-02T05:19:43.475Z,99477.38
2023-03-02T05:22:10.518Z,99489.22
2023-03-02T05:24:38.136Z,99478.28
2023-03-02T05:27:05.140Z,99484.31
2023-03-02T05:29:32.107Z,99474.84
2023-03-02T05:31:59.145Z,99493.19
2023-03-02T05:34:26.182Z,99473.66
2023-03-02T05:36:53.311Z,99481.63
2023-03-02T05:39:20.330Z,99484.50
2023-03-02T05:41:47.299Z,99478.56
2023-03-02T05:44:14.353Z,99487.06
2023-03-02T05:46:41.834Z,99488.03
2023-03-02T05:49:09.129Z,99486.47
2023-03-02T05:51:36.194Z,99481.38
2023-03-02T05:54:03.240Z,99467.34
2023-03-02T05:56:30.444Z,99470.53
2023-03-02T05:58:57.513Z,99478.38
2023-03-02T06:01:24.528Z,99475.69
2023-03-02T06:03:51.536Z,99453.81
2023-03-02T06:06:18.686Z,99456.97
2023-03-02T06:08:45.731Z,99473.63
2023-03-02T06:11:13.237Z,99467.00
2023-03-02T06:13:40.843Z,99472.25
2023-03-02T06:16:09.138Z,99467.19
2023-03-02T06:18:39.187Z,99473.97
2023-03-02T06:21:07.621Z,99460.75
2023-03-02T06:23:34.713Z,99477.81
2023-03-02T06:26:08.422Z,99491.78
2023-03-02T06:28:49.714Z,99459.56
2023-03-02T06:31:18.900Z,99483.56
2023-03-02T06:33:45.942Z,99483.66
2023-03-02T06:36:13.075Z,99485.78
2023-03-02T06:38:40.188Z,99476.69
2023-03-02T06:41:07.190Z,99470.78
2023-03-02T06:43:34.175Z,99475.03
2023-03-02T06:46:01.213Z,99461.41
2023-03-02T06:48:28.326Z,99457.81
2023-03-02T06:50:55.324Z,99465.06
2023-03-02T06:53:23.621Z,99465.06
2023-03-02T06:55:51.107Z,99465.72
2023-03-02T06:58:18.177Z,99461.56
2023-03-02T07:00:45.229Z,99433.75
2023-03-02T07:03:12.211Z,99465.94
2023-03-02T07:05:39.213Z,99456.53
2023-03-02T07:08:06.255Z,99464.59
2023-03-02T07:10:33.484Z,99418.69
2023-03-02T07:13:00.672Z,99462.69
2023-03-02T07:15:27.687Z,99458.78
2023-03-02T07:17:54.750Z,99460.53
2023-03-02T07:20:21.917Z,99448.38
2023-03-02T07:22:49.009Z,99455.25
2023-03-02T07:25:15.991Z,99447.69
2023-03-02T07:27:43.401Z,99462.41
2023-03-02T07:30:11.285Z,99462.06
2023-03-02T07:32:38.385Z,99461.34
2023-03-02T07:35:05.733Z,99453.75
2023-03-02T07:37:32.957Z,99461.41
2023-03-02T07:40:00.935Z,99459.50
2023-03-02T07:42:28.246Z,99458.78
2023-03-02T07:44:58.001Z,99466.34
2023-03-02T07:47:25.500Z,99465.97
2023-03-02T07:49:52.598Z,99475.19
2023-03-02T07:52:19.694Z,99453.69
2023-03-02T07:54:46.716Z,99472.75
2023-03-02T07:57:16.354Z,99455.06
2023-03-02T07:59:43.979Z,99463.91
2023-03-02T08:02:15.298Z,99461.56
2023-03-02T08:04:43.018Z,99460.19
2023-03-02T08:07:10.240Z,99464.97
2023-03-02T08:09:38.713Z,99434.50
2023-03-02T08:12:05.900Z,99445.78
2023-03-02T08:14:32.940Z,99441.69
2023-03-02T08:16:59.948Z,99436.94
2023-03-02T08:19:27.062Z,99431.59
2023-03-02T08:21:54.129Z,99423.19
2023-03-02T08:24:21.185Z,99419.50
2023-03-02T08:26:48.172Z,99429.53
2023-03-02T08:29:15.190Z,99432.78
2023-03-02T08:31:42.273Z,99421.34
2023-03-02T08:34:09.324Z,99418.19
2023-03-02T08:36:36.393Z,99427.25
2023-03-02T08:39:03.381Z,99404.03
2023-03-02T08:41:30.815Z,99416.47
2023-03-02T08:43:58.019Z,99419.69
2023-03-02T08:46:25.014Z,99433.78
2023-03-02T08:48:52.218Z,99417.06
2023-03-02T08:51:24.797Z,99437.91
2023-03-02T08:53:55.455Z,99433.28
2023-03-02T08:56:29.013Z,99432.16
2023-03-02T08:58:59.000Z,99428.56
2023-03-02T09:01:29.931Z,99436.66
2023-03-02T09:03:59.892Z,99414.94
2023-03-02T09:06:32.106Z,99384.66
2023-03-02T09:08:59.881Z,99433.84
2023-03-02T09:11:27.922Z,99427.53
2023-03-02T09:13:55.158Z,99433.63
2023-03-02T09:16:24.342Z,99440.94
2023-03-02T09:18:51.999Z,99422.41
2023-03-02T09:21:19.713Z,99419.28
2023-03-02T09:23:46.971Z,99428.03
2023-03-02T09:26:14.050Z,99420.28
2023-03-02T09:28:41.125Z,99415.84
2023-03-02T09:31:09.130Z,99413.13
2023-03-02T09:33:36.654Z,99414.75
2023-03-02T09:36:08.282Z,99395.91
2023-03-02T09:38:35.395Z,99423.00
2023-03-02T09:41:08.426Z,99417.28
2023-03-02T09:43:38.138Z,99405.22
2023-03-02T09:46:17.765Z,99403.47
2023-03-02T09:48:49.446Z,99383.53
2023-03-02T09:51:33.691Z,99406.91
2023-03-02T09:54:09.028Z,99405.22
2023-03-02T09:56:57.877Z,99401.44
2023-03-02T09:59:27.108Z,99397.91
2023-03-02T10:02:03.123Z,99376.56
2023-03-02T10:04:38.837Z,99389.41
2023-03-02T10:07:15.105Z,99381.03
2023-03-02T10:09:43.003Z,99390.41
2023-03-02T10:12:22.002Z,99379.19
2023-03-02T10:15:31.448Z,99371.50
2023-03-02T10:18:12.592Z,99367.19
2023-03-02T10:21:05.618Z,99367.84
2023-03-02T10:24:14.159Z,99359.25
2023-03-02T10:26:48.460Z,99348.22
2023-03-02T10:29:42.888Z,99340.22
2023-03-02T10:32:21.214Z,99332.16
2023-03-02T10:34:50.318Z,99339.34
2023-03-02T10:37:23.121Z,99322.66
2023-03-02T10:39:50.232Z,99328.13
2023-03-02T10:42:43.366Z,99328.66
2023-03-02T10:45:31.183Z,99331.09
2023-03-02T10:48:09.629Z,99326.59
2023-03-02T10:50:37.740Z,99325.03
2023-03-02T10:53:08.833Z,99304.81
2023-03-02T10:55:35.917Z,99302.13
2023-03-02T10:58:21.165Z,99296.75
2023-03-02T11:01:05.716Z,99283.47
2023-03-02T11:03:33.982Z,99276.94
2023-03-02T11:06:17.864Z,99288.25
2023-03-02T11:08:44.875Z,99274.91
2023-03-02T11:11:23.335Z,99275.34
2023-03-02T11:13:51.248Z,99275.28
2023-03-02T11:16:18.258Z,99236.47
2023-03-02T11:19:14.352Z,99244.06
2023-03-02T11:21:44.880Z,99248.34
2023-03-02T11:24:22.063Z,99238.16
2023-03-02T11:26:54.975Z,99235.25
2023-03-02T11:29:42.946Z,99238.81
2023-03-02T11:32:38.952Z,99234.72
2023-03-02T11:35:09.137Z,99233.59
2023-03-02T11:38:15.534Z,99229.34
2023-03-02T11:40:51.537Z,99239.59
2023-03-02T11:43:18.626Z,99222.91
2023-03-02T11:45:48.389Z,99245.63
2023-03-02T11:48:15.320Z,99249.41
2023-03-02T11:51:06.875Z,99247.81
2023-03-02T11:53:43.281Z,99245.72
2023-03-02T11:56:10.862Z,99237.63
2023-03-02T11:58:39.490Z,99231.41
2023-03-02T12:01:15.742Z,99227.94
2023-03-02T12:03:45.039Z,99227.06
2023-03-02T12:06:14.821Z,99240.38
2023-03-02T12:08:44.511Z,99221.88
2023-03-02T12:11:17.507Z,99236.91
2023-03-02T12:13:57.592Z,99225.78
2023-03-02T12:16:37.938Z,99227.13
2023-03-02T12:19:17.143Z,99229.06
2023-03-02T12:21:55.995Z,99215.22
2023-03-02T12:24:32.645Z,99132.09
2023-03-02T12:27:25.780Z,99209.84
2023-03-02T12:30:11.312Z,99202.09
2023-03-02T12:32:38.471Z,99200.22
2023-03-02T12:35:08.243Z,99194.59
2023-03-02T12:37:58.279Z,99187.66
2023-03-02T12:40:56.107Z,99179.22
2023-03-02T12:43:34.653Z,99164.94
2023-03-02T12:46:33.764Z,99163.28
2023-03-02T12:49:25.509Z,99149.78
2023-03-02T12:52:03.961Z,99135.03
2023-03-02T12:54:34.158Z,99146.94
2023-03-02T12:57:19.323Z,99135.69
2023-03-02T12:59:58.501Z,99132.81
2023-03-02T13:02:47.426Z,99131.25
2023-03-02T13:05:23.875Z,99137.16
2023-03-02T13:08:04.455Z,99126.78
2023-03-02T13:10:38.629Z,99115.69
2023-03-02T13:13:25.794Z,99110.88
2023-03-02T13:15:54.167Z,99107.59
2023-03-02T13:18:22.667Z,99094.66
2023-03-02T13:20:50.988Z,99095.72
2023-03-02T13:23:19.267Z,99071.81
2023-03-02T13:25:57.384Z,99083.88
2023-03-02T13:28:30.395Z,99090.09
2023-03-02T13:31:23.221Z,99096.25
2023-03-02T13:33:52.657Z,99062.34
2023-03-02T13:36:25.677Z,99077.69
2023-03-02T13:38:56.046Z,99061.16
2023-03-02T13:41:28.559Z,99072.84
2023-03-02T13:43:56.205Z,99045.41
2023-03-02T13:46:23.227Z,99071.88
2023-03-02T13:49:10.229Z,99059.66
2023-03-02T13:51:44.200Z,99059.81
2023-03-02T13:54:25.270Z,99052.53
2023-03-02T13:56:53.926Z,99058.78
2023-03-02T13:59:22.336Z,99039.13
2023-03-02T14:01:49.654Z,99022.53
2023-03-02T14:04:19.087Z,99020.66
2023-03-02T14:06:46.684Z,99018.50
2023-03-02T14:09:14.561Z,99030.81
2023-03-02T14:11:44.716Z,99025.38
2023-03-02T14:14:18.103Z,99028.09
2023-03-02T14:16:45.225Z,99017.03
2023-03-02T14:19:18.603Z,99017.84
2023-03-02T14:21:46.893Z,99005.94
2023-03-02T14:24:14.506Z,99004.09
2023-03-02T14:26:47.317Z,99002.31
2023-03-02T14:29:14.241Z,98997.47
2023-03-02T14:31:41.304Z,98999.91
2023-03-02T14:34:16.016Z,99009.19
2023-03-02T14:36:46.330Z,99003.81
2023-03-02T14:39:30.632Z,98996.22
2023-03-02T14:41:57.854Z,98969.97
2023-03-02T14:44:25.171Z,98982.06
2023-03-02T14:46:53.240Z,98981.41
2023-03-02T14:49:20.728Z,98969.56
2023-03-02T14:51:59.824Z,98972.66
2023-03-02T14:54:30.653Z,98970.78
2023-03-02T14:56:57.691Z,98964.09
2023-03-02T14:59:24.708Z,98944.94
2023-03-02T15:01:51.745Z,98946.06
2023-03-02T15:04:18.839Z,98958.28
2023-03-02T15:06:46.302Z,98939.19
2023-03-02T15:09:13.422Z,98943.59
2023-03-02T15:11:40.475Z,98940.09
2023-03-02T15:14:07.453Z,98944.53
2023-03-02T15:16:34.495Z,98935.16
2023-03-02T15:19:01.570Z,98933.59
2023-03-02T15:21:28.683Z,98937.94
2023-03-02T15:23:55.777Z,98932.06
2023-03-02T15:26:22.861Z,98943.69
2023-03-02T15:28:51.836Z,98904.81
2023-03-02T15:31:19.787Z,98931.09
2023-03-02T15:33:46.942Z,98915.63
2023-03-02T15:36:14.392Z,98933.25
2023-03-02T15:38:41.734Z,98938.81
2023-03-02T15:41:13.921Z,98938.69
2023-03-02T15:43:41.213Z,98918.16
2023-03-02T15:46:12.361Z,98928.47
2023-03-02T15:48:39.382Z,98941.63
2023-03-02T15:51:08.398Z,98939.94
2023-03-02T15:53:38.246Z,98931.97
2023-03-02T15:56:12.364Z,98931.09
2023-03-02T15:58:40.488Z,98929.50
2023-03-02T16:01:08.992Z,98915.72
2023-03-02T16:03:36.682Z,98932.91
2023-03-02T16:06:04.010Z,98926.69
2023-03-02T16:08:31.348Z,98913.78
2023-03-02T16:11:00.474Z,98928.28
2023-03-02T16:13:30.035Z,98923.31
2023-03-02T16:15:57.453Z,98913.06
2023-03-02T16:18:24.440Z,98931.97
2023-03-02T16:20:51.419Z,98926.13
2023-03-02T16:23:18.473Z,98915.47
2023-03-02T16:25:47.588Z,98923.63
2023-03-02T16:28:16.890Z,98886.47
2023-03-02T16:30:44.481Z,98897.88
2023-03-02T16:33:17.147Z,98911.88
2023-03-02T16:35:44.745Z,98911.50
2023-03-02T16:38:11.857Z,98903.97
2023-03-02T16:40:40.290Z,98899.34
2023-03-02T16:43:10.617Z,98894.25
2023-03-02T16:45:37.938Z,98876.63
2023-03-02T16:48:06.573Z,98886.31
2023-03-02T16:50:33.821Z,98892.75
2023-03-02T16:53:01.010Z,98909.09
2023-03-02T16:55:28.285Z,98884.59
2023-03-02T16:57:55.712Z,98888.66
2023-03-02T17:00:23.607Z,98904.72
2023-03-02T17:02:51.575Z,98882.34
2023-03-02T17:05:20.512Z,98889.53
2023-03-02T17:07:47.767Z,98894.50
2023-03-02T17:10:20.267Z,98896.25
2023-03-02T17:12:47.422Z,98896.50
2023-03-02T17:15:14.512Z,98886.03
2023-03-02T17:17:41.919Z,98878.84
2023-03-02T17:20:10.517Z,98889.28
2023-03-02T17:22:37.766Z,98876.91
2023-03-02T17:25:05.181Z,98844.59
2023-03-02T17:27:32.399Z,98886.53
2023-03-02T17:29:59.522Z,98870.31
2023-03-02T17:32:26.714Z,98886.91
2023-03-02T17:34:53.930Z,98890.38
2023-03-02T17:37:21.121Z,98887.16
2023-03-02T17:39:51.302Z,98882.06
2023-03-02T17:42:19.409Z,98889.53
2023-03-02T17:44:46.449Z,98876.94
2023-03-02T17:47:15.149Z,98887.25
2023-03-02T17:49:45.857Z,98880.47
2023-03-02T17:52:14.437Z,98887.31
2023-03-02T17:54:42.122Z,98886.69
2023-03-02T17:57:09.620Z,98871.16
2023-03-02T17:59:36.886Z,98876.31
2023-03-02T18:02:04.145Z,98883.41
2023-03-02T18:04:31.192Z,98894.69
2023-03-02T18:06:58.255Z,98831.41
2023-03-02T18:09:26.851Z,98889.78
2023-03-02T18:11:53.821Z,98886.41
2023-03-02T18:14:21.653Z,98894.22
2023-03-02T18:16:48.734Z,98878.22
2023-03-02T18:19:16.005Z,98880.97
2023-03-02T18:21:43.052Z,98881.03
2023-03-02T18:24:10.099Z,98867.38
2023-03-02T18:26:37.696Z,98861.28
2023-03-02T18:29:05.303Z,98875.28
2023-03-02T18:31:34.466Z,98867.38
2023-03-02T18:34:03.023Z,98872.78
2023-03-02T18:36:30.327Z,98862.53
2023-03-02T18:38:57.352Z,98832.72
2023-03-02T18:41:25.112Z,98872.97
2023-03-02T18:43:52.588Z,98847.06
2023-03-02T18:46:26.742Z,98870.56
2023-03-02T18:48:54.856Z,98867.28
2023-03-02T18:51:23.815Z,98868.19
2023-03-02T18:53:51.557Z,98863.28
2023-03-02T18:56:18.985Z,98863.28
2023-03-02T18:58:46.236Z,98847.75
2023-03-02T19:01:13.443Z,98859.13
2023-03-02T19:03:41.955Z,98854.03
2023-03-02T19:06:09.411Z,98849.44
2023-03-02T19:08:36.778Z,98848.91
2023-03-02T19:11:05.893Z,98852.28
2023-03-02T19:13:33.537Z,98855.66
2023-03-02T19:16:02.189Z,98864.25
2023-03-02T19:18:30.153Z,98853.06
2023-03-02T19:20:57.868Z,98847.28
2023-03-02T19:23:25.384Z,98846.59
2023-03-02T19:25:53.043Z,98828.38
2023-03-02T19:28:21.827Z,98818.78
2023-03-02T19:30:49.793Z,98845.06
2023-03-02T19:33:17.888Z,98831.31
2023-03-02T19:35:45.300Z,98786.16
2023-03-02T19:38:12.901Z,98838.50
2023-03-02T19:40:40.499Z,98827.19
2023-03-02T19:43:07.680Z,98806.63
2023-03-02T19:45:35.869Z,98832.53
2023-03-02T19:48:04.072Z,98817.88
2023-03-02T19:50:31.750Z,98826.69
2023-03-02T19:52:59.184Z,98826.69
2023-03-02T19:55:27.386Z,98823.25
2023-03-02T19:58:00.241Z,98819.78
2023-03-02T20:00:29.369Z,98781.44
2023-03-02T20:02:56.857Z,98821.72
2023-03-02T20:05:26.073Z,98807.84
2023-03-02T20:07:53.762Z,98796.56
2023-03-02T20:10:30.336Z,98817.56
2023-03-02T20:12:59.490Z,98811.47
2023-03-02T20:15:31.889Z,98806.38
2023-03-02T20:18:02.552Z,98796.00
2023-03-02T20:20:30.998Z,98794.22
2023-03-02T20:23:00.214Z,98797.81
2023-03-02T20:25:28.445Z,98796.88
2023-03-02T20:27:57.424Z,98796.75
2023-03-02T20:30:29.316Z,98799.22
2023-03-02T20:32:57.995Z,98804.47
2023-03-02T20:35:26.153Z,98780.53
2023-03-02T20:37:54.945Z,98784.81
2023-03-02T20:40:23.365Z,98773.72
2023-03-02T20:42:50.427Z,98771.28
2023-03-02T20:45:17.635Z,98767.84
2023-03-02T20:47:44.835Z,98776.38
2023-03-02T20:50:16.377Z,98775.44
2023-03-02T20:52:43.491Z,98768.41
2023-03-02T20:55:11.983Z,98774.44
2023-03-02T20:57:39.877Z,98770.13
2023-03-02T21:00:11.951Z,98763.16
2023-03-02T21:02:38.992Z,98752.91
2023-03-02T21:05:06.755Z,98766.75
2023-03-02T21:07:35.957Z,98769.28
2023-03-02T21:10:07.955Z,98771.00
2023-03-02T21:12:35.507Z,98760.75
2023-03-02T21:15:03.952Z,98752.13
2023-03-02T21:17:31.694Z,98766.06
2023-03-02T21:19:58.681Z,98760.13
2023-03-02T21:22:25.873Z,98746.09
2023-03-02T21:24:55.980Z,98758.31
2023-03-02T21:27:23.142Z,98760.22
2023-03-02T21:29:50.229Z,98758.50
2023-03-02T21:32:17.646Z,98754.19
2023-03-02T21:34:45.079Z,98737.00
2023-03-02T21:37:12.156Z,98759.34
2023-03-02T21:39:39.175Z,98755.84
2023-03-02T21:42:06.294Z,98740.16
2023-03-02T21:44:33.349Z,98736.69
2023-03-02T21:47:00.373Z,98746.16
2023-03-02T21:49:27.445Z,98739.16
2023-03-02T21:51:54.449Z,98739.06
2023-03-02T21:54:21.520Z,98733.81
2023-03-02T21:56:48.513Z,98727.41
2023-03-02T21:59:15.535Z,98710.75
2023-03-02T22:01:42.706Z,98700.22
2023-03-02T22:04:09.725Z,98728.66
2023-03-02T22:06:37.789Z,98732.66
2023-03-02T22:09:05.038Z,98725.75
2023-03-02T22:11:36.894Z,98734.22
2023-03-02T22:14:16.275Z,98703.16
2023-03-02T22:16:47.488Z,98697.56
2023-03-02T22:19:31.357Z,98717.66
2023-03-02T22:22:00.448Z,98688.00
2023-03-02T22:24:30.522Z,98691.47
2023-03-02T22:27:20.979Z,98705.56
2023-03-02T22:29:48.990Z,98702.28
2023-03-02T22:32:25.649Z,98709.06
2023-03-02T22:34:59.619Z,98698.19
2023-03-02T22:37:28.875Z,98642.56
2023-03-02T22:40:00.980Z,98691.28
2023-03-02T22:42:30.679Z,98683.69
2023-03-02T22:45:13.040Z,98699.47
2023-03-02T22:47:40.174Z,98695.25
2023-03-02T22:50:29.078Z,98693.75
2023-03-02T22:52:57.840Z,98696.13
2023-03-02T22:55:34.021Z,98698.69
2023-03-02T22:58:22.354Z,98701.38
2023-03-02T23:00:49.444Z,98699.47
2023-03-02T23:03:18.879Z,98625.66
2023-03-02T23:05:49.294Z,98699.50
2023-03-02T23:08:25.094Z,98692.78
2023-03-02T23:10:54.240Z,98690.06
2023-03-02T23:13:26.933Z,98690.09
2023-03-02T23:15:55.144Z,98682.50
2023-03-02T23:18:28.833Z,98684.41
2023-03-02T23:20:56.387Z,98660.16
2023-03-02T23:23:24.809Z,98627.25
2023-03-02T23:25:51.928Z,98683.97
2023-03-02T23:28:18.929Z,98677.34
2023-03-02T23:30:45.907Z,98665.91
2023-03-02T23:33:12.935Z,98669.72
2023-03-02T23:35:40.049Z,98661.19
2023-03-02T23:38:07.055Z,98666.44
2023-03-02T23:40:34.635Z,98661.66
2023-03-02T23:43:01.657Z,98662.59
2023-03-02T23:45:28.720Z,98660.94
2023-03-02T23:47:55.690Z,98648.97
2023-03-02T23:50:22.716Z,98652.44
2023-03-02T23:52:49.706Z,98643.16
2023-03-02T23:55:16.912Z,98650.94
2023-03-02T23:57:43.876Z,98642.59
